sensor_id;sensor_type;location;lat;lon;timestamp;temperature;humidity
19437;DHT22;9854;50.968;4.168;2022-07-29T00:01:18;21.30;99.90
19437;DHT22;9854;50.968;4.168;2022-07-29T00:03:43;21.20;99.90
19437;DHT22;9854;50.968;4.168;2022-07-29T00:06:09;21.20;99.90
19437;DHT22;9854;50.968;4.168;2022-07-29T00:08:34;21.10;99.90
19437;DHT22;9854;50.968;4.168;2022-07-29T00:11:00;21.20;99.90
19437;DHT22;9854;50.968;4.168;2022-07-29T00:13:26;21.20;99.90
19437;DHT22;9854;50.968;4.168;2022-07-29T00:15:51;21.20;99.90
19437;DHT22;9854;50.968;4.168;2022-07-29T00:18:17;21.30;99.90
19437;DHT22;9854;50.968;4.168;2022-07-29T00:20:42;21.30;99.90
19437;DHT22;9854;50.968;4.168;2022-07-29T00:23:08;21.50;99.90
19437;DHT22;9854;50.968;4.168;2022-07-29T00:25:34;21.70;99.90
19437;DHT22;9854;50.968;4.168;2022-07-29T00:27:59;21.70;99.90
19437;DHT22;9854;50.968;4.168;2022-07-29T00:30:25;21.60;99.90
19437;DHT22;9854;50.968;4.168;2022-07-29T00:32:51;21.30;99.90
19437;DHT22;9854;50.968;4.168;2022-07-29T00:35:16;21.20;99.90
19437;DHT22;9854;50.968;4.168;2022-07-29T00:38:00;21.20;99.90
19437;DHT22;9854;50.968;4.168;2022-07-29T00:40:26;21.00;99.90
19437;DHT22;9854;50.968;4.168;2022-07-29T00:42:52;20.90;99.90
19437;DHT22;9854;50.968;4.168;2022-07-29T00:45:18;20.90;99.90
19437;DHT22;9854;50.968;4.168;2022-07-29T00:47:44;21.00;99.90
19437;DHT22;9854;50.968;4.168;2022-07-29T00:50:11;21.00;99.90
19437;DHT22;9854;50.968;4.168;2022-07-29T00:52:39;21.10;99.90
19437;DHT22;9854;50.968;4.168;2022-07-29T00:55:07;21.10;99.90
19437;DHT22;9854;50.968;4.168;2022-07-29T00:57:35;21.00;99.90
19437;DHT22;9854;50.968;4.168;2022-07-29T01:00:03;21.00;99.90
19437;DHT22;9854;50.968;4.168;2022-07-29T01:02:29;21.00;99.90
19437;DHT22;9854;50.968;4.168;2022-07-29T01:04:54;21.00;99.90
19437;DHT22;9854;50.968;4.168;2022-07-29T01:07:22;20.90;99.90
19437;DHT22;9854;50.968;4.168;2022-07-29T01:09:48;20.90;99.90
19437;DHT22;9854;50.968;4.168;2022-07-29T01:12:18;20.80;99.90
19437;DHT22;9854;50.968;4.168;2022-07-29T01:14:45;20.80;99.90
19437;DHT22;9854;50.968;4.168;2022-07-29T01:22:44;20.60;99.90
19437;DHT22;9854;50.968;4.168;2022-07-29T01:30:33;20.40;99.90
19437;DHT22;9854;50.968;4.168;2022-07-29T01:33:03;20.20;99.90
19437;DHT22;9854;50.968;4.168;2022-07-29T01:35:39;20.20;99.90
19437;DHT22;9854;50.968;4.168;2022-07-29T01:38:12;20.10;99.90
19437;DHT22;9854;50.968;4.168;2022-07-29T01:41:08;20.10;99.90
19437;DHT22;9854;50.968;4.168;2022-07-29T01:44:12;20.20;99.90
19437;DHT22;9854;50.968;4.168;2022-07-29T01:46:35;20.10;99.90
19437;DHT22;9854;50.968;4.168;2022-07-29T01:49:10;20.10;99.90
19437;DHT22;9854;50.968;4.168;2022-07-29T01:51:51;20.10;99.90
19437;DHT22;9854;50.968;4.168;2022-07-29T01:54:26;20.00;99.90
19437;DHT22;9854;50.968;4.168;2022-07-29T01:56:56;19.90;99.90
19437;DHT22;9854;50.968;4.168;2022-07-29T01:59:23;19.70;99.90
19437;DHT22;9854;50.968;4.168;2022-07-29T02:01:52;19.60;99.90
19437;DHT22;9854;50.968;4.168;2022-07-29T02:04:19;19.50;99.90
19437;DHT22;9854;50.968;4.168;2022-07-29T02:06:48;19.30;99.90
19437;DHT22;9854;50.968;4.168;2022-07-29T02:09:15;19.30;99.90
19437;DHT22;9854;50.968;4.168;2022-07-29T02:11:46;19.20;99.90
19437;DHT22;9854;50.968;4.168;2022-07-29T02:14:14;19.20;99.90
19437;DHT22;9854;50.968;4.168;2022-07-29T02:16:41;19.20;99.90
19437;DHT22;9854;50.968;4.168;2022-07-29T02:19:08;19.30;99.90
19437;DHT22;9854;50.968;4.168;2022-07-29T02:21:35;19.20;99.90
19437;DHT22;9854;50.968;4.168;2022-07-29T02:24:01;19.20;99.90
19437;DHT22;9854;50.968;4.168;2022-07-29T02:26:29;19.10;99.90
19437;DHT22;9854;50.968;4.168;2022-07-29T02:28:58;19.00;99.90
19437;DHT22;9854;50.968;4.168;2022-07-29T02:31:27;19.00;99.90
19437;DHT22;9854;50.968;4.168;2022-07-29T02:33:54;19.00;99.90
19437;DHT22;9854;50.968;4.168;2022-07-29T02:36:22;19.00;99.90
19437;DHT22;9854;50.968;4.168;2022-07-29T02:38:49;19.10;99.90
19437;DHT22;9854;50.968;4.168;2022-07-29T02:41:23;19.20;99.90
19437;DHT22;9854;50.968;4.168;2022-07-29T02:43:56;19.10;99.90
19437;DHT22;9854;50.968;4.168;2022-07-29T02:46:30;19.00;99.90
19437;DHT22;9854;50.968;4.168;2022-07-29T02:49:02;18.90;99.90
19437;DHT22;9854;50.968;4.168;2022-07-29T02:51:43;18.80;99.90
19437;DHT22;9854;50.968;4.168;2022-07-29T02:54:10;18.70;99.90
19437;DHT22;9854;50.968;4.168;2022-07-29T02:56:38;18.70;99.90
19437;DHT22;9854;50.968;4.168;2022-07-29T02:59:09;18.80;99.90
19437;DHT22;9854;50.968;4.168;2022-07-29T03:01:40;19.10;99.90
19437;DHT22;9854;50.968;4.168;2022-07-29T03:04:08;19.50;99.90
19437;DHT22;9854;50.968;4.168;2022-07-29T03:06:35;19.30;99.90
19437;DHT22;9854;50.968;4.168;2022-07-29T03:09:02;18.80;99.90
19437;DHT22;9854;50.968;4.168;2022-07-29T03:11:29;18.60;99.90
19437;DHT22;9854;50.968;4.168;2022-07-29T03:13:55;18.40;99.90
19437;DHT22;9854;50.968;4.168;2022-07-29T03:16:21;18.50;99.90
19437;DHT22;9854;50.968;4.168;2022-07-29T03:18:50;18.50;99.90
19437;DHT22;9854;50.968;4.168;2022-07-29T03:21:16;18.40;99.90
19437;DHT22;9854;50.968;4.168;2022-07-29T03:23:45;18.30;99.90
19437;DHT22;9854;50.968;4.168;2022-07-29T03:26:11;18.30;99.90
19437;DHT22;9854;50.968;4.168;2022-07-29T03:28:37;18.10;99.90
19437;DHT22;9854;50.968;4.168;2022-07-29T03:31:02;18.00;99.90
19437;DHT22;9854;50.968;4.168;2022-07-29T03:33:28;17.90;99.90
19437;DHT22;9854;50.968;4.168;2022-07-29T03:35:55;17.90;99.90
19437;DHT22;9854;50.968;4.168;2022-07-29T03:38:24;17.90;99.90
19437;DHT22;9854;50.968;4.168;2022-07-29T03:40:56;17.90;99.90
19437;DHT22;9854;50.968;4.168;2022-07-29T03:43:30;17.90;99.90
19437;DHT22;9854;50.968;4.168;2022-07-29T03:45:58;17.70;99.90
19437;DHT22;9854;50.968;4.168;2022-07-29T03:48:25;17.60;99.90
19437;DHT22;9854;50.968;4.168;2022-07-29T03:50:51;17.60;99.90
19437;DHT22;9854;50.968;4.168;2022-07-29T03:53:18;17.60;99.90
19437;DHT22;9854;50.968;4.168;2022-07-29T03:55:47;17.50;99.90
19437;DHT22;9854;50.968;4.168;2022-07-29T03:58:14;17.50;99.90
19437;DHT22;9854;50.968;4.168;2022-07-29T04:00:42;17.60;99.90
19437;DHT22;9854;50.968;4.168;2022-07-29T04:03:08;17.50;99.90
19437;DHT22;9854;50.968;4.168;2022-07-29T04:05:34;17.40;99.90
19437;DHT22;9854;50.968;4.168;2022-07-29T04:08:00;17.30;99.90
19437;DHT22;9854;50.968;4.168;2022-07-29T04:10:26;17.20;99.90
19437;DHT22;9854;50.968;4.168;2022-07-29T04:12:51;17.30;99.90
19437;DHT22;9854;50.968;4.168;2022-07-29T04:15:18;17.40;99.90
19437;DHT22;9854;50.968;4.168;2022-07-29T04:17:43;17.40;99.90
19437;DHT22;9854;50.968;4.168;2022-07-29T04:20:10;17.50;99.90
19437;DHT22;9854;50.968;4.168;2022-07-29T04:22:41;17.50;99.90
19437;DHT22;9854;50.968;4.168;2022-07-29T04:25:07;17.70;99.90
19437;DHT22;9854;50.968;4.168;2022-07-29T04:27:33;17.70;99.90
19437;DHT22;9854;50.968;4.168;2022-07-29T04:29:58;17.70;99.90
19437;DHT22;9854;50.968;4.168;2022-07-29T04:32:25;17.70;99.90
19437;DHT22;9854;50.968;4.168;2022-07-29T04:34:51;17.70;99.90
19437;DHT22;9854;50.968;4.168;2022-07-29T04:37:16;17.60;99.90
19437;DHT22;9854;50.968;4.168;2022-07-29T04:39:42;17.60;99.90
19437;DHT22;9854;50.968;4.168;2022-07-29T04:42:07;17.60;99.90
19437;DHT22;9854;50.968;4.168;2022-07-29T04:44:33;17.60;99.90
19437;DHT22;9854;50.968;4.168;2022-07-29T04:46:59;17.50;99.90
19437;DHT22;9854;50.968;4.168;2022-07-29T04:49:24;17.60;99.90
19437;DHT22;9854;50.968;4.168;2022-07-29T04:51:50;17.50;99.90
19437;DHT22;9854;50.968;4.168;2022-07-29T04:54:15;17.60;99.90
19437;DHT22;9854;50.968;4.168;2022-07-29T04:56:41;17.60;99.90
19437;DHT22;9854;50.968;4.168;2022-07-29T04:59:07;17.50;99.90
19437;DHT22;9854;50.968;4.168;2022-07-29T05:01:33;17.60;99.90
19437;DHT22;9854;50.968;4.168;2022-07-29T05:03:59;17.70;99.90
19437;DHT22;9854;50.968;4.168;2022-07-29T05:06:24;17.60;99.90
19437;DHT22;9854;50.968;4.168;2022-07-29T05:08:50;17.50;99.90
19437;DHT22;9854;50.968;4.168;2022-07-29T05:11:15;17.60;99.90
19437;DHT22;9854;50.968;4.168;2022-07-29T05:13:41;17.80;99.90
19437;DHT22;9854;50.968;4.168;2022-07-29T05:16:08;17.70;99.90
19437;DHT22;9854;50.968;4.168;2022-07-29T05:18:34;17.70;99.90
19437;DHT22;9854;50.968;4.168;2022-07-29T05:20:59;17.80;99.90
19437;DHT22;9854;50.968;4.168;2022-07-29T05:23:25;17.80;99.90
19437;DHT22;9854;50.968;4.168;2022-07-29T05:25:50;17.80;99.90
19437;DHT22;9854;50.968;4.168;2022-07-29T05:28:16;17.90;99.90
19437;DHT22;9854;50.968;4.168;2022-07-29T05:30:42;18.00;99.90
19437;DHT22;9854;50.968;4.168;2022-07-29T05:33:09;17.90;99.90
19437;DHT22;9854;50.968;4.168;2022-07-29T05:35:35;18.00;99.90
19437;DHT22;9854;50.968;4.168;2022-07-29T05:38:03;18.10;99.90
19437;DHT22;9854;50.968;4.168;2022-07-29T05:40:29;18.20;99.90
19437;DHT22;9854;50.968;4.168;2022-07-29T05:42:55;18.50;99.90
19437;DHT22;9854;50.968;4.168;2022-07-29T05:45:20;18.60;99.90
19437;DHT22;9854;50.968;4.168;2022-07-29T05:47:46;18.70;99.90
19437;DHT22;9854;50.968;4.168;2022-07-29T05:50:12;18.90;99.90
19437;DHT22;9854;50.968;4.168;2022-07-29T05:52:38;18.90;99.90
19437;DHT22;9854;50.968;4.168;2022-07-29T05:55:04;18.60;99.90
19437;DHT22;9854;50.968;4.168;2022-07-29T05:57:31;18.70;99.90
19437;DHT22;9854;50.968;4.168;2022-07-29T05:59:56;18.80;99.90
19437;DHT22;9854;50.968;4.168;2022-07-29T06:02:22;18.90;99.90
19437;DHT22;9854;50.968;4.168;2022-07-29T06:04:47;18.70;99.90
19437;DHT22;9854;50.968;4.168;2022-07-29T06:07:13;18.70;99.90
19437;DHT22;9854;50.968;4.168;2022-07-29T06:09:39;18.60;99.90
19437;DHT22;9854;50.968;4.168;2022-07-29T06:12:05;18.70;99.90
19437;DHT22;9854;50.968;4.168;2022-07-29T06:14:30;18.80;99.90
19437;DHT22;9854;50.968;4.168;2022-07-29T06:16:57;18.90;99.90
19437;DHT22;9854;50.968;4.168;2022-07-29T06:19:22;19.00;99.90
19437;DHT22;9854;50.968;4.168;2022-07-29T06:21:48;19.00;99.90
19437;DHT22;9854;50.968;4.168;2022-07-29T06:24:14;19.10;99.90
19437;DHT22;9854;50.968;4.168;2022-07-29T06:26:41;19.20;99.90
19437;DHT22;9854;50.968;4.168;2022-07-29T06:29:08;19.30;99.90
19437;DHT22;9854;50.968;4.168;2022-07-29T06:31:35;19.30;99.90
19437;DHT22;9854;50.968;4.168;2022-07-29T06:34:01;19.50;99.90
19437;DHT22;9854;50.968;4.168;2022-07-29T06:36:27;19.60;99.90
19437;DHT22;9854;50.968;4.168;2022-07-29T06:38:52;19.60;99.90
19437;DHT22;9854;50.968;4.168;2022-07-29T06:41:18;19.60;99.90
19437;DHT22;9854;50.968;4.168;2022-07-29T06:43:45;19.70;99.90
19437;DHT22;9854;50.968;4.168;2022-07-29T06:46:15;19.70;99.90
19437;DHT22;9854;50.968;4.168;2022-07-29T06:48:43;19.80;99.90
19437;DHT22;9854;50.968;4.168;2022-07-29T06:51:10;19.80;99.90
19437;DHT22;9854;50.968;4.168;2022-07-29T06:53:36;19.80;99.90
19437;DHT22;9854;50.968;4.168;2022-07-29T06:56:03;19.90;99.90
19437;DHT22;9854;50.968;4.168;2022-07-29T06:58:30;20.00;99.90
19437;DHT22;9854;50.968;4.168;2022-07-29T07:00:57;20.20;99.90
19437;DHT22;9854;50.968;4.168;2022-07-29T07:03:24;20.10;99.90
19437;DHT22;9854;50.968;4.168;2022-07-29T07:05:51;20.10;99.90
19437;DHT22;9854;50.968;4.168;2022-07-29T07:08:17;20.10;99.90
19437;DHT22;9854;50.968;4.168;2022-07-29T07:10:45;20.10;99.90
19437;DHT22;9854;50.968;4.168;2022-07-29T07:13:10;20.10;99.90
19437;DHT22;9854;50.968;4.168;2022-07-29T07:15:36;20.20;99.90
19437;DHT22;9854;50.968;4.168;2022-07-29T07:18:03;20.20;99.90
19437;DHT22;9854;50.968;4.168;2022-07-29T07:20:29;20.10;99.90
19437;DHT22;9854;50.968;4.168;2022-07-29T07:22:54;20.10;99.90
19437;DHT22;9854;50.968;4.168;2022-07-29T07:25:20;20.30;99.90
19437;DHT22;9854;50.968;4.168;2022-07-29T07:27:46;20.50;99.90
19437;DHT22;9854;50.968;4.168;2022-07-29T07:30:12;20.50;99.90
19437;DHT22;9854;50.968;4.168;2022-07-29T07:32:38;20.40;99.90
19437;DHT22;9854;50.968;4.168;2022-07-29T07:35:06;20.40;99.90
19437;DHT22;9854;50.968;4.168;2022-07-29T07:37:32;20.60;99.90
19437;DHT22;9854;50.968;4.168;2022-07-29T07:39:57;20.90;99.90
19437;DHT22;9854;50.968;4.168;2022-07-29T07:42:23;20.90;99.90
19437;DHT22;9854;50.968;4.168;2022-07-29T07:44:49;20.70;99.90
19437;DHT22;9854;50.968;4.168;2022-07-29T07:47:15;21.00;99.90
19437;DHT22;9854;50.968;4.168;2022-07-29T07:49:47;20.90;99.90
19437;DHT22;9854;50.968;4.168;2022-07-29T07:52:15;21.00;99.90
19437;DHT22;9854;50.968;4.168;2022-07-29T07:54:41;21.00;99.90
19437;DHT22;9854;50.968;4.168;2022-07-29T07:57:08;20.70;99.90
19437;DHT22;9854;50.968;4.168;2022-07-29T07:59:34;20.70;99.90
19437;DHT22;9854;50.968;4.168;2022-07-29T08:02:00;20.70;99.90
19437;DHT22;9854;50.968;4.168;2022-07-29T08:04:26;21.00;99.90
19437;DHT22;9854;50.968;4.168;2022-07-29T08:06:52;21.00;99.90
19437;DHT22;9854;50.968;4.168;2022-07-29T08:09:20;21.10;99.90
19437;DHT22;9854;50.968;4.168;2022-07-29T08:11:46;21.30;99.90
19437;DHT22;9854;50.968;4.168;2022-07-29T08:14:12;21.40;99.90
19437;DHT22;9854;50.968;4.168;2022-07-29T08:16:39;21.60;99.90
19437;DHT22;9854;50.968;4.168;2022-07-29T08:19:05;21.70;99.90
19437;DHT22;9854;50.968;4.168;2022-07-29T08:21:31;21.80;99.90
19437;DHT22;9854;50.968;4.168;2022-07-29T08:23:56;21.90;99.90
19437;DHT22;9854;50.968;4.168;2022-07-29T08:26:45;21.80;99.90
19437;DHT22;9854;50.968;4.168;2022-07-29T08:29:11;21.50;99.90
19437;DHT22;9854;50.968;4.168;2022-07-29T08:31:37;21.40;99.90
19437;DHT22;9854;50.968;4.168;2022-07-29T08:34:04;21.20;99.90
19437;DHT22;9854;50.968;4.168;2022-07-29T08:36:30;21.30;99.90
19437;DHT22;9854;50.968;4.168;2022-07-29T08:38:56;21.30;99.90
19437;DHT22;9854;50.968;4.168;2022-07-29T08:41:21;21.50;99.90
19437;DHT22;9854;50.968;4.168;2022-07-29T08:43:48;21.70;99.90
19437;DHT22;9854;50.968;4.168;2022-07-29T08:46:15;21.90;99.90
19437;DHT22;9854;50.968;4.168;2022-07-29T08:48:42;22.10;99.90
19437;DHT22;9854;50.968;4.168;2022-07-29T08:51:08;22.30;99.90
19437;DHT22;9854;50.968;4.168;2022-07-29T08:53:41;22.30;99.90
19437;DHT22;9854;50.968;4.168;2022-07-29T08:56:07;22.50;99.90
19437;DHT22;9854;50.968;4.168;2022-07-29T08:58:33;22.30;99.90
19437;DHT22;9854;50.968;4.168;2022-07-29T09:01:02;22.40;99.90
19437;DHT22;9854;50.968;4.168;2022-07-29T09:03:32;22.20;99.90
19437;DHT22;9854;50.968;4.168;2022-07-29T09:06:02;22.30;99.90
19437;DHT22;9854;50.968;4.168;2022-07-29T09:08:28;22.70;99.90
19437;DHT22;9854;50.968;4.168;2022-07-29T09:10:54;22.90;99.90
19437;DHT22;9854;50.968;4.168;2022-07-29T09:13:21;23.10;99.90
19437;DHT22;9854;50.968;4.168;2022-07-29T09:15:47;23.10;99.90
19437;DHT22;9854;50.968;4.168;2022-07-29T09:18:40;23.20;99.90
19437;DHT22;9854;50.968;4.168;2022-07-29T09:21:08;23.30;99.90
19437;DHT22;9854;50.968;4.168;2022-07-29T09:24:10;23.60;99.90
19437;DHT22;9854;50.968;4.168;2022-07-29T09:26:38;23.70;99.90
19437;DHT22;9854;50.968;4.168;2022-07-29T09:29:10;23.80;99.90
19437;DHT22;9854;50.968;4.168;2022-07-29T09:31:38;24.00;99.90
19437;DHT22;9854;50.968;4.168;2022-07-29T09:34:05;24.10;99.90
19437;DHT22;9854;50.968;4.168;2022-07-29T09:36:42;24.10;99.90
19437;DHT22;9854;50.968;4.168;2022-07-29T09:39:08;24.30;99.90
19437;DHT22;9854;50.968;4.168;2022-07-29T09:41:48;24.50;99.90
19437;DHT22;9854;50.968;4.168;2022-07-29T09:44:14;24.90;99.90
19437;DHT22;9854;50.968;4.168;2022-07-29T09:46:47;24.90;99.90
19437;DHT22;9854;50.968;4.168;2022-07-29T09:49:17;24.70;99.90
19437;DHT22;9854;50.968;4.168;2022-07-29T09:51:43;24.60;99.90
19437;DHT22;9854;50.968;4.168;2022-07-29T09:54:27;24.70;99.90
19437;DHT22;9854;50.968;4.168;2022-07-29T09:56:54;24.90;99.90
19437;DHT22;9854;50.968;4.168;2022-07-29T09:59:20;24.90;99.90
19437;DHT22;9854;50.968;4.168;2022-07-29T10:01:48;24.40;99.90
19437;DHT22;9854;50.968;4.168;2022-07-29T10:04:15;24.50;99.90
19437;DHT22;9854;50.968;4.168;2022-07-29T10:07:01;24.70;99.90
19437;DHT22;9854;50.968;4.168;2022-07-29T10:09:27;25.00;99.90
19437;DHT22;9854;50.968;4.168;2022-07-29T10:12:26;25.40;99.90
19437;DHT22;9854;50.968;4.168;2022-07-29T10:14:51;25.40;99.90
19437;DHT22;9854;50.968;4.168;2022-07-29T10:17:18;25.50;99.90
19437;DHT22;9854;50.968;4.168;2022-07-29T10:19:44;25.60;99.90
19437;DHT22;9854;50.968;4.168;2022-07-29T10:22:11;25.80;99.90
19437;DHT22;9854;50.968;4.168;2022-07-29T10:24:38;25.90;99.90
19437;DHT22;9854;50.968;4.168;2022-07-29T10:27:06;26.10;99.90
19437;DHT22;9854;50.968;4.168;2022-07-29T10:29:32;26.20;99.90
19437;DHT22;9854;50.968;4.168;2022-07-29T10:32:14;26.30;99.90
19437;DHT22;9854;50.968;4.168;2022-07-29T10:43:40;26.20;99.90
19437;DHT22;9854;50.968;4.168;2022-07-29T10:46:06;26.10;99.90
19437;DHT22;9854;50.968;4.168;2022-07-29T10:48:33;26.20;99.90
19437;DHT22;9854;50.968;4.168;2022-07-29T10:51:00;26.10;99.90
19437;DHT22;9854;50.968;4.168;2022-07-29T10:53:50;26.10;99.90
19437;DHT22;9854;50.968;4.168;2022-07-29T10:56:25;26.30;99.90
19437;DHT22;9854;50.968;4.168;2022-07-29T10:59:43;26.50;99.90
19437;DHT22;9854;50.968;4.168;2022-07-29T11:02:01;26.10;99.90
19437;DHT22;9854;50.968;4.168;2022-07-29T11:07:09;25.40;99.90
19437;DHT22;9854;50.968;4.168;2022-07-29T11:09:34;25.30;99.90
19437;DHT22;9854;50.968;4.168;2022-07-29T11:12:00;25.30;99.90
19437;DHT22;9854;50.968;4.168;2022-07-29T11:17:17;26.50;99.90
19437;DHT22;9854;50.968;4.168;2022-07-29T11:19:43;26.90;99.90
19437;DHT22;9854;50.968;4.168;2022-07-29T11:22:10;27.20;99.90
19437;DHT22;9854;50.968;4.168;2022-07-29T11:24:36;27.50;99.90
19437;DHT22;9854;50.968;4.168;2022-07-29T11:27:19;27.40;99.90
19437;DHT22;9854;50.968;4.168;2022-07-29T11:29:52;27.30;99.90
19437;DHT22;9854;50.968;4.168;2022-07-29T11:32:19;27.20;99.90
19437;DHT22;9854;50.968;4.168;2022-07-29T11:34:48;27.30;99.90
19437;DHT22;9854;50.968;4.168;2022-07-29T11:37:15;27.70;99.90
19437;DHT22;9854;50.968;4.168;2022-07-29T11:39:42;27.90;99.90
19437;DHT22;9854;50.968;4.168;2022-07-29T11:44:55;27.60;99.90
19437;DHT22;9854;50.968;4.168;2022-07-29T11:47:28;27.30;99.90
19437;DHT22;9854;50.968;4.168;2022-07-29T11:49:55;27.30;99.90
19437;DHT22;9854;50.968;4.168;2022-07-29T11:52:22;27.60;99.90
19437;DHT22;9854;50.968;4.168;2022-07-29T11:54:50;27.80;99.90
19437;DHT22;9854;50.968;4.168;2022-07-29T11:57:19;27.20;99.90
19437;DHT22;9854;50.968;4.168;2022-07-29T11:59:47;26.80;99.90
19437;DHT22;9854;50.968;4.168;2022-07-29T12:02:13;26.90;99.90
19437;DHT22;9854;50.968;4.168;2022-07-29T12:04:53;27.10;99.90
19437;DHT22;9854;50.968;4.168;2022-07-29T12:07:29;27.80;99.90
19437;DHT22;9854;50.968;4.168;2022-07-29T12:09:55;27.60;99.90
19437;DHT22;9854;50.968;4.168;2022-07-29T12:12:21;27.90;99.90
19437;DHT22;9854;50.968;4.168;2022-07-29T12:14:48;27.60;99.90
19437;DHT22;9854;50.968;4.168;2022-07-29T12:17:30;27.90;99.90
19437;DHT22;9854;50.968;4.168;2022-07-29T12:19:57;27.80;99.90
19437;DHT22;9854;50.968;4.168;2022-07-29T12:22:37;27.30;99.90
19437;DHT22;9854;50.968;4.168;2022-07-29T12:25:07;27.80;99.90
19437;DHT22;9854;50.968;4.168;2022-07-29T12:27:33;28.30;99.90
19437;DHT22;9854;50.968;4.168;2022-07-29T12:30:00;28.20;99.90
19437;DHT22;9854;50.968;4.168;2022-07-29T12:32:56;27.90;99.90
19437;DHT22;9854;50.968;4.168;2022-07-29T12:35:21;28.30;99.90
19437;DHT22;9854;50.968;4.168;2022-07-29T12:37:48;28.40;99.90
19437;DHT22;9854;50.968;4.168;2022-07-29T12:40:17;28.00;99.90
19437;DHT22;9854;50.968;4.168;2022-07-29T12:43:09;28.10;99.90
19437;DHT22;9854;50.968;4.168;2022-07-29T12:45:35;28.90;99.90
19437;DHT22;9854;50.968;4.168;2022-07-29T12:48:01;29.20;99.90
19437;DHT22;9854;50.968;4.168;2022-07-29T12:50:28;29.40;99.90
19437;DHT22;9854;50.968;4.168;2022-07-29T12:53:11;29.60;99.90
19437;DHT22;9854;50.968;4.168;2022-07-29T12:55:39;29.40;99.90
19437;DHT22;9854;50.968;4.168;2022-07-29T12:58:05;29.50;99.90
19437;DHT22;9854;50.968;4.168;2022-07-29T13:00:31;29.10;99.90
19437;DHT22;9854;50.968;4.168;2022-07-29T13:02:57;28.40;99.90
19437;DHT22;9854;50.968;4.168;2022-07-29T13:05:23;28.70;99.90
19437;DHT22;9854;50.968;4.168;2022-07-29T13:07:50;28.90;99.90
19437;DHT22;9854;50.968;4.168;2022-07-29T13:15:29;30.20;99.90
19437;DHT22;9854;50.968;4.168;2022-07-29T13:17:55;30.00;99.90
19437;DHT22;9854;50.968;4.168;2022-07-29T13:20:24;29.90;99.90
19437;DHT22;9854;50.968;4.168;2022-07-29T13:22:52;29.90;99.90
19437;DHT22;9854;50.968;4.168;2022-07-29T13:25:38;30.30;99.90
19437;DHT22;9854;50.968;4.168;2022-07-29T13:28:06;30.50;99.90
19437;DHT22;9854;50.968;4.168;2022-07-29T13:30:31;30.40;99.90
19437;DHT22;9854;50.968;4.168;2022-07-29T13:32:57;30.40;99.90
19437;DHT22;9854;50.968;4.168;2022-07-29T13:35:22;30.40;99.90
19437;DHT22;9854;50.968;4.168;2022-07-29T13:37:48;30.50;99.90
19437;DHT22;9854;50.968;4.168;2022-07-29T13:40:14;30.70;99.90
19437;DHT22;9854;50.968;4.168;2022-07-29T13:42:40;30.50;99.90
19437;DHT22;9854;50.968;4.168;2022-07-29T13:45:07;30.20;99.90
19437;DHT22;9854;50.968;4.168;2022-07-29T13:47:32;30.40;99.90
19437;DHT22;9854;50.968;4.168;2022-07-29T13:50:02;30.20;99.90
19437;DHT22;9854;50.968;4.168;2022-07-29T13:52:28;30.40;99.90
19437;DHT22;9854;50.968;4.168;2022-07-29T13:54:53;30.50;99.90
19437;DHT22;9854;50.968;4.168;2022-07-29T13:57:19;30.80;99.90
19437;DHT22;9854;50.968;4.168;2022-07-29T13:59:45;30.80;99.90
19437;DHT22;9854;50.968;4.168;2022-07-29T14:02:11;30.70;99.90
19437;DHT22;9854;50.968;4.168;2022-07-29T14:04:37;30.50;99.90
19437;DHT22;9854;50.968;4.168;2022-07-29T14:07:04;30.50;99.90
19437;DHT22;9854;50.968;4.168;2022-07-29T14:09:30;30.20;99.90
19437;DHT22;9854;50.968;4.168;2022-07-29T14:11:55;30.00;99.90
19437;DHT22;9854;50.968;4.168;2022-07-29T14:14:21;29.70;99.90
19437;DHT22;9854;50.968;4.168;2022-07-29T14:16:47;29.70;99.90
19437;DHT22;9854;50.968;4.168;2022-07-29T14:19:12;29.90;99.90
19437;DHT22;9854;50.968;4.168;2022-07-29T14:21:39;30.70;99.90
19437;DHT22;9854;50.968;4.168;2022-07-29T14:24:05;31.20;99.90
19437;DHT22;9854;50.968;4.168;2022-07-29T14:26:31;31.50;99.90
19437;DHT22;9854;50.968;4.168;2022-07-29T14:28:57;31.10;99.00
19437;DHT22;9854;50.968;4.168;2022-07-29T14:31:22;30.10;99.90
19437;DHT22;9854;50.968;4.168;2022-07-29T14:33:48;30.60;99.90
19437;DHT22;9854;50.968;4.168;2022-07-29T14:36:14;31.30;99.70
19437;DHT22;9854;50.968;4.168;2022-07-29T14:38:40;31.90;99.90
19437;DHT22;9854;50.968;4.168;2022-07-29T14:41:06;31.90;99.20
19437;DHT22;9854;50.968;4.168;2022-07-29T14:43:33;31.80;98.80
19437;DHT22;9854;50.968;4.168;2022-07-29T14:45:59;31.70;99.90
19437;DHT22;9854;50.968;4.168;2022-07-29T14:48:25;32.20;99.50
19437;DHT22;9854;50.968;4.168;2022-07-29T14:50:51;31.80;98.80
19437;DHT22;9854;50.968;4.168;2022-07-29T14:53:17;32.40;99.90
19437;DHT22;9854;50.968;4.168;2022-07-29T14:55:43;33.40;99.10
19437;DHT22;9854;50.968;4.168;2022-07-29T14:58:09;34.10;97.70
19437;DHT22;9854;50.968;4.168;2022-07-29T15:00:35;34.50;97.50
19437;DHT22;9854;50.968;4.168;2022-07-29T15:03:02;34.40;95.90
19437;DHT22;9854;50.968;4.168;2022-07-29T15:05:29;33.70;94.90
19437;DHT22;9854;50.968;4.168;2022-07-29T15:07:55;33.80;96.20
19437;DHT22;9854;50.968;4.168;2022-07-29T15:10:21;34.60;96.40
19437;DHT22;9854;50.968;4.168;2022-07-29T15:12:46;35.30;95.20
19437;DHT22;9854;50.968;4.168;2022-07-29T15:15:12;34.90;94.60
19437;DHT22;9854;50.968;4.168;2022-07-29T15:17:38;34.70;94.80
19437;DHT22;9854;50.968;4.168;2022-07-29T15:20:04;34.40;94.40
19437;DHT22;9854;50.968;4.168;2022-07-29T15:22:30;33.90;94.90
19437;DHT22;9854;50.968;4.168;2022-07-29T15:24:56;33.80;94.80
19437;DHT22;9854;50.968;4.168;2022-07-29T15:27:21;33.50;94.40
19437;DHT22;9854;50.968;4.168;2022-07-29T15:29:47;33.80;94.50
19437;DHT22;9854;50.968;4.168;2022-07-29T15:32:12;33.70;94.50
19437;DHT22;9854;50.968;4.168;2022-07-29T15:34:39;34.00;94.30
19437;DHT22;9854;50.968;4.168;2022-07-29T15:37:05;34.60;93.90
19437;DHT22;9854;50.968;4.168;2022-07-29T15:39:31;35.60;93.50
19437;DHT22;9854;50.968;4.168;2022-07-29T15:41:57;35.80;93.40
19437;DHT22;9854;50.968;4.168;2022-07-29T15:44:25;35.90;93.10
19437;DHT22;9854;50.968;4.168;2022-07-29T15:46:51;36.40;91.90
19437;DHT22;9854;50.968;4.168;2022-07-29T15:49:34;35.70;91.90
19437;DHT22;9854;50.968;4.168;2022-07-29T15:52:01;34.20;92.80
19437;DHT22;9854;50.968;4.168;2022-07-29T15:54:28;33.70;93.30
19437;DHT22;9854;50.968;4.168;2022-07-29T15:56:54;33.60;93.30
19437;DHT22;9854;50.968;4.168;2022-07-29T15:59:21;34.50;93.00
19437;DHT22;9854;50.968;4.168;2022-07-29T16:01:46;35.50;92.00
19437;DHT22;9854;50.968;4.168;2022-07-29T16:04:12;36.30;91.30
19437;DHT22;9854;50.968;4.168;2022-07-29T16:06:38;36.20;91.00
19437;DHT22;9854;50.968;4.168;2022-07-29T16:09:04;35.40;91.60
19437;DHT22;9854;50.968;4.168;2022-07-29T16:11:29;34.80;91.90
19437;DHT22;9854;50.968;4.168;2022-07-29T16:13:55;34.60;92.90
19437;DHT22;9854;50.968;4.168;2022-07-29T16:16:21;35.40;92.10
19437;DHT22;9854;50.968;4.168;2022-07-29T16:18:46;36.30;91.40
19437;DHT22;9854;50.968;4.168;2022-07-29T16:21:12;36.30;91.10
19437;DHT22;9854;50.968;4.168;2022-07-29T16:23:39;36.50;90.80